Time;durP1;ratioP1;P1;durP2;ratioP2;P2;SDS_P1;SDS_P2;PMS_P1;PMS_P2;Temp;Humidity;BMP_temperature;BMP_pressure;BME280_temperature;BME280_humidity;BME280_pressure;Samples;Min_cycle;Max_cycle;Signal;HPM_P1;HPM_P2
2021/12/14 00:01:53;;;;;;;22.90;14.60;;;8.60;99.90;;;;;;5008760;28;20053;-83
2021/12/14 00:04:31;;;;;;;23.50;14.38;;;8.60;99.90;;;;;;4897857;28;2982336;-83
2021/12/14 00:07:04;;;;;;;20.55;14.05;;;8.60;99.90;;;;;;5006697;28;20060;-83
2021/12/14 00:09:35;;;;;;;22.33;14.00;;;8.60;99.90;;;;;;4989265;28;124738;-83
2021/12/14 00:17:24;;;;;;;19.27;13.35;;;8.60;99.90;;;;;;5027263;28;20049;-83
2021/12/14 00:19:53;;;;;;;22.42;13.70;;;8.60;99.90;;;;;;5014822;28;273367;-84
2021/12/14 00:22:34;;;;;;;20.55;13.48;;;8.60;99.90;;;;;;5003347;28;20057;-82
2021/12/14 00:25:03;;;;;;;22.27;14.10;;;8.60;99.90;;;;;;5016586;28;256465;-84
2021/12/14 00:27:29;;;;;;;22.15;14.23;;;8.60;99.90;;;;;;5028969;28;20593;-84
2021/12/14 00:30:00;;;;;;;19.83;13.30;;;8.60;99.90;;;;;;5008032;28;149240;-82
2021/12/14 00:32:30;;;;;;;20.27;13.13;;;8.60;99.90;;;;;;5021835;28;20049;-85
2021/12/14 00:34:59;;;;;;;20.03;12.97;;;8.60;99.90;;;;;;4996401;28;236674;-84
2021/12/14 00:37:32;;;;;;;20.80;13.00;;;8.60;99.90;;;;;;5025284;28;20299;-83
2021/12/14 00:40:04;;;;;;;22.35;13.63;;;8.60;99.90;;;;;;5011333;28;261100;-85
2021/12/14 00:42:30;;;;;;;23.33;13.02;;;8.60;99.90;;;;;;5024088;28;20119;-83
2021/12/14 00:44:57;;;;;;;21.48;13.43;;;8.60;99.90;;;;;;5019053;28;264252;-82
2021/12/14 00:47:23;;;;;;;20.92;13.60;;;8.60;99.90;;;;;;5026659;28;20042;-82
2021/12/14 00:49:52;;;;;;;18.75;13.32;;;8.60;99.90;;;;;;5015222;28;265900;-84
2021/12/14 00:52:18;;;;;;;20.50;13.32;;;8.60;99.90;;;;;;5019700;28;20061;-84
2021/12/14 00:54:44;;;;;;;22.70;13.48;;;8.60;99.90;;;;;;5011340;28;20411;-84
2021/12/14 00:57:10;;;;;;;23.17;13.48;;;8.60;99.90;;;;;;5020335;28;20053;-82
2021/12/14 00:59:37;;;;;;;21.42;14.10;;;8.60;99.90;;;;;;5015250;28;267025;-83
2021/12/14 01:02:16;;;;;;;19.63;13.55;;;8.60;99.90;;;;;;5008405;28;20064;-83
2021/12/14 01:04:48;;;;;;;19.50;13.02;;;8.60;99.90;;;;;;4996488;28;186021;-81
2021/12/14 01:07:15;;;;;;;;;;;8.60;99.90;;;;;;5028622;28;20049;-83
2021/12/14 01:09:45;;;;;;;22.52;13.75;;;8.60;99.90;;;;;;5016404;28;276599;-84
2021/12/14 01:12:26;;;;;;;22.15;14.02;;;8.60;99.90;;;;;;5033404;28;20057;-83
2021/12/14 01:15:22;;;;;;;22.33;14.10;;;8.60;99.90;;;;;;5018197;28;266441;-83
2021/12/14 01:18:01;;;;;;;25.15;15.38;;;8.60;99.90;;;;;;5025200;28;20045;-81
2021/12/14 01:20:38;;;;;;;24.38;15.48;;;8.60;99.90;;;;;;4992545;28;222183;-83
2021/12/14 01:23:15;;;;;;;22.52;15.00;;;8.60;99.90;;;;;;5036062;28;20053;-84
2021/12/14 01:25:47;;;;;;;24.55;15.50;;;8.60;99.90;;;;;;5029378;28;128553;-83
2021/12/14 01:28:19;;;;;;;25.50;15.93;;;8.60;99.90;;;;;;5032953;28;20069;-82
2021/12/14 01:31:16;;;;;;;21.83;14.90;;;8.60;99.90;;;;;;5016081;28;20418;-82
2021/12/14 01:33:48;;;;;;;24.65;16.35;;;8.60;99.90;;;;;;5009250;28;267685;-83
2021/12/14 01:41:55;;;;;;;24.85;16.20;;;8.60;99.90;;;;;;4996234;28;20050;-83
2021/12/14 01:44:26;;;;;;;25.13;16.77;;;8.60;99.90;;;;;;4966835;28;180666;-83
2021/12/14 01:47:01;;;;;;;24.73;17.27;;;8.60;99.90;;;;;;4980510;28;20072;-83
2021/12/14 01:49:29;;;;;;;26.60;17.63;;;8.60;99.90;;;;;;4989079;28;113588;-85
2021/12/14 01:51:59;;;;;;;25.88;17.58;;;8.60;99.90;;;;;;4985934;28;20806;-83
2021/12/14 01:54:32;;;;;;;24.17;16.88;;;8.60;99.90;;;;;;4995924;28;66752;-84
2021/12/14 01:57:08;;;;;;;27.00;17.58;;;8.60;99.90;;;;;;4991728;28;20057;-83
2021/12/14 01:59:38;;;;;;;24.92;17.15;;;8.60;99.90;;;;;;4987694;28;55345;-84
2021/12/14 02:02:23;;;;;;;25.15;16.55;;;8.60;99.90;;;;;;5002569;28;20322;-82
2021/12/14 02:04:52;;;;;;;25.73;17.50;;;8.60;99.90;;;;;;4998572;28;157823;-84
2021/12/14 02:07:19;;;;;;;27.08;18.25;;;8.70;99.90;;;;;;4977609;28;20059;-85
2021/12/14 02:09:51;;;;;;;24.83;17.85;;;8.60;99.90;;;;;;5001391;28;143171;-84
2021/12/14 02:12:23;;;;;;;28.20;18.25;;;8.60;99.90;;;;;;5004234;28;20068;-86
2021/12/14 02:14:50;;;;;;;27.05;18.42;;;8.60;99.90;;;;;;5008008;28;113187;-83
2021/12/14 02:17:18;;;;;;;26.58;18.52;;;8.60;99.90;;;;;;5030016;28;20061;-84
2021/12/14 02:19:46;;;;;;;28.52;19.08;;;8.60;99.90;;;;;;4993702;28;174185;-81
2021/12/14 02:22:16;;;;;;;26.25;18.60;;;8.60;99.90;;;;;;5025447;28;20654;-84
2021/12/14 02:24:49;;;;;;;29.95;19.92;;;8.60;99.90;;;;;;5003413;28;207326;-84
2021/12/14 02:27:16;;;;;;;27.08;18.70;;;8.60;99.90;;;;;;5023765;28;20065;-85
2021/12/14 02:29:48;;;;;;;30.05;19.00;;;8.60;99.90;;;;;;5015745;28;156470;-83
2021/12/14 02:32:17;;;;;;;26.95;19.50;;;8.60;99.90;;;;;;5030090;28;20053;-84
2021/12/14 02:34:50;;;;;;;29.67;20.15;;;8.50;99.90;;;;;;5022849;28;207829;-85
2021/12/14 02:37:22;;;;;;;28.13;20.00;;;8.60;99.90;;;;;;5028813;28;20402;-82
2021/12/14 02:40:01;;;;;;;31.77;19.15;;;8.50;99.90;;;;;;5020019;28;228711;-84
2021/12/14 02:42:30;;;;;;;28.80;19.25;;;8.50;99.90;;;;;;5030729;28;20448;-86
2021/12/14 02:44:57;;;;;;;28.48;20.15;;;8.50;99.90;;;;;;5018044;28;267911;-83
2021/12/14 02:47:24;;;;;;;29.63;19.92;;;8.50;99.90;;;;;;5031756;28;20445;-81
2021/12/14 02:49:53;;;;;;;29.83;20.80;;;8.50;99.90;;;;;;5014457;28;94514;-83
2021/12/14 02:52:36;;;;;;;32.75;20.90;;;8.50;99.90;;;;;;5031190;28;20069;-86
2021/12/14 02:55:22;;;;;;;28.23;20.30;;;8.50;99.90;;;;;;5016063;28;264738;-83
2021/12/14 02:57:53;;;;;;;30.40;21.08;;;8.50;99.90;;;;;;5025220;28;20437;-82
2021/12/14 03:00:31;;;;;;;32.45;21.90;;;8.40;99.90;;;;;;5008250;28;252295;-83
2021/12/14 03:03:01;;;;;;;33.30;21.05;;;8.40;99.90;;;;;;5030354;28;20069;-83
2021/12/14 03:05:34;;;;;;;30.42;20.77;;;8.40;99.90;;;;;;5008680;28;260255;-82
2021/12/14 03:08:14;;;;;;;34.25;21.40;;;8.40;99.90;;;;;;5025148;28;20065;-82
2021/12/14 03:10:59;;;;;;;32.20;21.63;;;8.40;99.90;;;;;;5014070;28;74150;-82
2021/12/14 03:13:32;;;;;;;35.38;21.20;;;8.40;99.90;;;;;;5025851;28;20069;-83
2021/12/14 03:16:01;;;;;;;31.40;21.27;;;8.30;99.90;;;;;;4983543;28;39203;-84
2021/12/14 03:18:32;;;;;;;34.25;22.40;;;8.30;99.90;;;;;;5026886;28;20422;-84
2021/12/14 03:21:06;;;;;;;31.48;21.38;;;8.30;99.90;;;;;;5003512;28;209438;-83
2021/12/14 03:23:37;;;;;;;34.20;22.70;;;8.30;99.90;;;;;;5037434;28;20442;-83
2021/12/14 03:26:07;;;;;;;34.72;22.23;;;8.30;99.90;;;;;;4995517;28;20049;-83
2021/12/14 03:28:34;;;;;;;34.22;23.20;;;8.30;99.90;;;;;;5023819;28;20057;-83
2021/12/14 03:31:28;;;;;;;36.45;23.13;;;8.40;99.90;;;;;;5009644;28;271763;-83
2021/12/14 03:34:09;;;;;;;34.90;23.52;;;8.30;99.90;;;;;;5009815;28;277310;-83
2021/12/14 03:36:47;;;;;;;34.50;20.80;;;8.30;99.90;;;;;;5043028;28;20058;-83
2021/12/14 03:39:26;;;;;;;35.95;23.23;;;8.20;99.90;;;;;;5011597;28;237263;-84
2021/12/14 03:41:59;;;;;;;37.38;23.67;;;8.30;99.90;;;;;;5021860;28;20053;-81
2021/12/14 03:44:42;;;;;;;34.65;24.08;;;8.20;99.90;;;;;;5024494;28;171098;-83
2021/12/14 03:47:27;;;;;;;36.30;23.70;;;8.30;99.90;;;;;;5024062;28;20034;-82
2021/12/14 03:49:57;;;;;;;38.80;24.90;;;8.30;99.90;;;;;;5021973;28;282279;-84
2021/12/14 03:52:31;;;;;;;37.00;23.90;;;8.30;99.90;;;;;;5042146;28;20068;-82
2021/12/14 03:55:02;;;;;;;36.03;23.50;;;8.20;99.90;;;;;;5029831;28;238566;-84
2021/12/14 03:57:28;;;;;;;37.47;25.02;;;8.30;99.90;;;;;;5046575;28;20061;-85
2021/12/14 03:59:59;;;;;;;38.47;24.52;;;8.30;99.90;;;;;;5037297;28;255231;-85
2021/12/14 04:02:26;;;;;;;41.30;25.70;;;8.30;99.90;;;;;;5032141;28;20059;-85
2021/12/14 04:05:09;;;;;;;38.53;24.42;;;8.30;99.90;;;;;;5022776;28;271832;-86
2021/12/14 04:07:37;;;;;;;39.13;25.50;;;8.30;99.90;;;;;;5038620;28;20068;-84
2021/12/14 04:10:08;;;;;;;39.90;25.30;;;8.30;99.90;;;;;;5021104;28;274843;-81
2021/12/14 04:12:35;;;;;;;38.30;25.42;;;8.30;99.90;;;;;;5035466;28;20053;-86
2021/12/14 04:15:03;;;;;;;38.65;25.45;;;8.20;99.90;;;;;;5030149;28;254344;-82
2021/12/14 04:17:30;;;;;;;39.20;24.85;;;8.30;99.90;;;;;;5015006;28;20054;-84
2021/12/14 04:19:57;;;;;;;37.38;25.27;;;8.30;99.90;;;;;;5002265;28;36889;-82
2021/12/14 04:22:29;;;;;;;39.47;26.33;;;8.20;99.90;;;;;;5035121;28;20564;-82
2021/12/14 04:24:59;;;;;;;39.80;25.95;;;8.20;99.90;;;;;;5016161;28;20421;-81
2021/12/14 04:27:30;;;;;;;40.92;25.80;;;8.30;99.90;;;;;;5028516;28;20058;-82
2021/12/14 04:29:59;;;;;;;41.65;26.33;;;8.30;99.90;;;;;;5020739;28;53062;-82
2021/12/14 04:32:25;;;;;;;39.42;25.70;;;8.30;99.90;;;;;;5039895;28;20034;-82
2021/12/14 04:34:54;;;;;;;42.13;26.35;;;8.30;99.90;;;;;;5016314;28;164934;-82
2021/12/14 04:37:21;;;;;;;40.28;25.85;;;8.30;99.90;;;;;;5022477;28;20061;-84
2021/12/14 04:39:56;;;;;;;38.30;25.50;;;8.30;99.90;;;;;;5014682;28;104955;-83
2021/12/14 04:51:57;;;;;;;41.15;25.30;;;8.30;99.90;;;;;;4972037;28;82817;-81
2021/12/14 04:54:03;;;;;;;41.45;24.75;;;8.30;99.90;;;;;;4964387;28;30156;-86
2021/12/14 04:56:34;;;;;;;38.20;26.58;;;8.30;99.90;;;;;;4988937;28;20083;-85
2021/12/14 04:59:19;;;;;;;37.83;25.20;;;8.30;99.90;;;;;;4961789;28;176147;-86
2021/12/14 05:01:47;;;;;;;41.00;25.15;;;8.30;99.90;;;;;;4938726;28;20061;-84
2021/12/14 05:04:18;;;;;;;40.20;25.90;;;8.40;99.90;;;;;;4917822;28;147832;-82
2021/12/14 05:06:55;;;;;;;41.28;25.48;;;8.30;99.90;;;;;;4954137;28;20085;-83
2021/12/14 05:09:27;;;;;;;40.28;26.58;;;8.40;99.90;;;;;;4920521;28;252500;-83
2021/12/14 05:12:05;;;;;;;39.55;25.98;;;8.40;99.90;;;;;;4954800;28;20055;-84
2021/12/14 05:14:34;;;;;;;37.67;25.88;;;8.30;99.90;;;;;;4954231;28;78796;-83
2021/12/14 05:17:05;;;;;;;39.42;24.73;;;8.30;99.90;;;;;;4969797;28;20451;-82
2021/12/14 05:19:34;;;;;;;41.30;26.38;;;8.30;99.90;;;;;;4987108;28;257882;-84
2021/12/14 05:22:09;;;;;;;40.80;26.50;;;8.30;99.90;;;;;;5036424;28;20056;-83
2021/12/14 05:24:40;;;;;;;39.33;25.92;;;8.30;99.90;;;;;;5014164;28;274176;-84
2021/12/14 05:27:11;;;;;;;;;;;8.30;99.90;;;;;;5033073;28;20057;-83
2021/12/14 05:29:41;;;;;;;42.95;25.67;;;8.30;99.90;;;;;;5013790;28;251087;-84
2021/12/14 05:32:10;;;;;;;41.23;26.57;;;8.30;99.90;;;;;;5031295;28;20061;-83
2021/12/14 05:34:39;;;;;;;43.25;27.75;;;8.30;99.90;;;;;;5009596;28;264869;-82
2021/12/14 05:37:07;;;;;;;42.60;27.77;;;8.30;99.90;;;;;;5030662;28;20205;-84
2021/12/14 05:39:59;;;;;;;43.10;27.33;;;8.30;99.90;;;;;;5012665;28;265696;-83
2021/12/14 05:45:21;;;;;;;46.47;27.35;;;8.20;99.90;;;;;;5023168;28;238393;-83
2021/12/14 05:47:58;;;;;;;46.53;28.98;;;8.20;99.90;;;;;;5027378;28;20049;-83
2021/12/14 05:50:38;;;;;;;46.78;28.70;;;8.20;99.90;;;;;;5014003;28;191107;-84
2021/12/14 05:53:09;;;;;;;47.95;29.80;;;8.10;99.90;;;;;;5025703;28;20045;-83
2021/12/14 05:55:39;;;;;;;45.45;28.17;;;8.20;99.90;;;;;;5024711;28;253689;-82
2021/12/14 05:58:16;;;;;;;52.33;30.42;;;8.10;99.90;;;;;;5029352;28;20049;-83
2021/12/14 06:00:46;;;;;;;49.78;29.75;;;8.10;99.90;;;;;;5015479;28;171688;-83
2021/12/14 06:03:24;;;;;;;46.45;30.02;;;8.10;99.90;;;;;;5022790;28;20067;-83
2021/12/14 06:05:52;;;;;;;53.85;31.20;;;8.10;99.90;;;;;;4994612;28;264907;-82
2021/12/14 06:08:31;;;;;;;50.13;30.35;;;8.10;99.90;;;;;;5028382;28;20057;-83
2021/12/14 06:10:58;;;;;;;59.05;32.05;;;8.10;99.90;;;;;;4990346;28;227079;-82
2021/12/14 06:13:40;;;;;;;53.47;31.42;;;8.10;99.90;;;;;;5026848;28;20391;-81
2021/12/14 06:16:08;;;;;;;56.35;33.05;;;8.10;99.90;;;;;;5014155;28;20053;-84
2021/12/14 06:18:34;;;;;;;56.45;33.58;;;8.00;99.90;;;;;;5040642;28;20061;-83
2021/12/14 06:21:02;;;;;;;59.83;34.00;;;8.00;99.90;;;;;;5006010;28;252098;-84
2021/12/14 06:23:29;;;;;;;60.38;34.47;;;8.10;99.90;;;;;;5027347;28;20053;-83
2021/12/14 06:25:56;;;;;;;56.63;33.72;;;8.00;99.90;;;;;;5004989;28;102212;-83
2021/12/14 06:28:24;;;;;;;58.22;34.55;;;8.00;99.90;;;;;;5025079;28;20056;-81
2021/12/14 06:30:52;;;;;;;56.20;32.83;;;8.00;99.90;;;;;;4976304;28;173182;-83
2021/12/14 06:33:18;;;;;;;55.72;34.35;;;8.10;99.90;;;;;;5023337;28;20057;-81
2021/12/14 06:35:51;;;;;;;56.97;34.30;;;8.00;99.90;;;;;;5026104;28;268537;-81
2021/12/14 06:38:25;;;;;;;57.75;34.53;;;8.10;99.90;;;;;;5027107;28;20049;-83
2021/12/14 06:40:54;;;;;;;60.97;35.47;;;8.00;99.90;;;;;;4974801;28;163895;-83
2021/12/14 06:43:26;;;;;;;59.25;35.08;;;8.00;99.90;;;;;;5031972;28;20041;-82
2021/12/14 06:46:00;;;;;;;61.28;34.95;;;8.10;99.90;;;;;;5010798;28;51415;-82
2021/12/14 06:48:46;;;;;;;61.47;35.70;;;8.00;99.90;;;;;;5026144;28;20048;-83
2021/12/14 06:51:26;;;;;;;62.80;34.80;;;8.00;99.90;;;;;;4963083;28;20050;-82
2021/12/14 06:54:09;;;;;;;63.95;36.35;;;8.00;99.90;;;;;;4966877;28;253839;-83
2021/12/14 06:56:37;;;;;;;65.40;37.38;;;8.00;99.90;;;;;;4970745;28;20542;-82
2021/12/14 06:59:12;;;;;;;68.47;38.17;;;8.00;99.90;;;;;;4970030;28;271301;-83
2021/12/14 07:01:58;;;;;;;67.97;37.47;;;8.00;99.90;;;;;;4973808;28;20109;-83
2021/12/14 07:04:29;;;;;;;70.80;38.50;;;8.00;99.90;;;;;;4953611;28;244075;-83
2021/12/14 07:06:58;;;;;;;74.80;38.58;;;8.00;99.90;;;;;;4990458;28;20050;-83
2021/12/14 07:09:48;;;;;;;68.68;38.83;;;8.00;99.90;;;;;;4972474;28;70807;-85
2021/12/14 07:12:24;;;;;;;68.53;37.28;;;8.10;99.90;;;;;;4972330;28;20050;-82
2021/12/14 07:14:53;;;;;;;66.32;38.80;;;8.00;99.90;;;;;;4981554;28;183620;-82
2021/12/14 07:17:27;;;;;;;65.40;37.90;;;8.00;99.90;;;;;;4987393;28;20403;-83
2021/12/14 07:20:11;;;;;;;69.25;39.38;;;8.00;99.90;;;;;;4974950;28;66529;-82
2021/12/14 07:22:47;;;;;;;71.18;39.60;;;8.10;99.90;;;;;;4984315;28;20049;-82
2021/12/14 07:25:32;;;;;;;76.22;40.20;;;8.00;99.90;;;;;;4970945;28;215713;-82
2021/12/14 07:28:15;;;;;;;75.32;39.58;;;8.10;99.90;;;;;;4998035;28;20053;-81
2021/12/14 07:30:44;;;;;;;80.13;41.63;;;8.10;99.90;;;;;;5002546;28;294129;-82
2021/12/14 07:33:15;;;;;;;76.35;40.55;;;8.10;99.90;;;;;;5038137;28;20037;-85
2021/12/14 07:35:52;;;;;;;75.10;39.83;;;8.00;99.90;;;;;;5043984;28;30093;-85
2021/12/14 07:38:42;;;;;;;73.35;40.63;;;8.00;99.90;;;;;;5053220;28;20072;-85
2021/12/14 07:41:10;;;;;;;82.20;41.95;;;8.00;99.90;;;;;;5034542;28;20072;-84
2021/12/14 07:43:47;;;;;;;78.30;39.22;;;8.00;99.90;;;;;;5040864;28;311929;-82
2021/12/14 07:46:53;;;;;;;76.10;40.85;;;8.10;99.90;;;;;;5048787;28;20056;-83
2021/12/14 07:49:23;;;;;;;80.85;41.95;;;8.10;99.90;;;;;;5019612;28;20045;-84
2021/12/14 07:51:54;;;;;;;78.55;41.13;;;8.10;99.90;;;;;;5029248;28;20054;-82
2021/12/14 07:54:27;;;;;;;76.22;41.38;;;8.10;99.90;;;;;;5017007;28;291878;-83
2021/12/14 07:57:19;;;;;;;78.15;41.25;;;8.10;99.90;;;;;;5039204;28;20461;-83
2021/12/14 07:59:49;;;;;;;70.93;38.47;;;8.10;99.90;;;;;;4918049;28;3005313;-82
2021/12/14 08:02:18;;;;;;;75.03;40.90;;;8.10;99.90;;;;;;5022533;28;20057;-83
2021/12/14 08:04:49;;;;;;;73.93;40.50;;;8.10;99.90;;;;;;4995150;28;110438;-85
2021/12/14 08:07:43;;;;;;;77.22;41.42;;;8.20;99.90;;;;;;5004788;28;20068;-84
2021/12/14 08:10:28;;;;;;;85.40;40.80;;;8.20;99.90;;;;;;5024205;28;269828;-83
2021/12/14 08:13:14;;;;;;;85.28;42.13;;;8.20;99.90;;;;;;5003169;28;20050;-82
2021/12/14 08:15:55;;;;;;;73.97;38.97;;;8.20;99.90;;;;;;5028343;28;238148;-84
2021/12/14 08:18:26;;;;;;;77.05;40.80;;;8.20;99.90;;;;;;5034525;28;20049;-85
2021/12/14 08:20:57;;;;;;;75.43;41.20;;;8.20;99.90;;;;;;5036334;28;269113;-85
2021/12/14 08:23:23;;;;;;;;;;;8.20;99.90;;;;;;5036442;28;20065;-84
2021/12/14 08:25:57;;;;;;;81.15;41.67;;;8.20;99.90;;;;;;5021165;28;95112;-83
2021/12/14 08:28:24;;;;;;;75.70;41.55;;;8.30;99.90;;;;;;5030981;28;20049;-85
2021/12/14 08:31:05;;;;;;;79.25;42.17;;;8.30;99.90;;;;;;4998533;28;251904;-83
2021/12/14 08:33:32;;;;;;;79.60;41.57;;;8.20;99.90;;;;;;5006361;28;20050;-84
2021/12/14 08:36:03;;;;;;;83.75;42.88;;;8.30;99.90;;;;;;5029410;28;260689;-84
2021/12/14 08:38:35;;;;;;;;;;;8.30;99.90;;;;;;5029353;28;20061;-83
2021/12/14 08:41:21;;;;;;;82.75;41.72;;;8.30;99.90;;;;;;5013867;28;148684;-82
2021/12/14 08:43:50;;;;;;;79.60;42.70;;;8.30;99.90;;;;;;5012785;28;246363;-83
2021/12/14 08:46:27;;;;;;;80.82;42.35;;;8.30;99.90;;;;;;5043961;28;20057;-82
2021/12/14 08:48:59;;;;;;;71.72;39.78;;;8.30;99.90;;;;;;4996241;28;253646;-83
2021/12/14 08:51:42;;;;;;;71.13;40.58;;;8.30;99.90;;;;;;5041520;28;20053;-85
2021/12/14 08:54:12;;;;;;;77.45;43.92;;;8.30;99.90;;;;;;5013674;28;272035;-84
2021/12/14 08:56:49;;;;;;;81.32;42.25;;;8.30;99.90;;;;;;5033144;28;20050;-84
2021/12/14 08:59:16;;;;;;;78.32;41.85;;;8.40;99.90;;;;;;5010686;28;180569;-84
2021/12/14 09:01:43;;;;;;;74.95;40.88;;;8.40;99.90;;;;;;5023708;28;20049;-84
2021/12/14 09:04:32;;;;;;;76.53;40.90;;;8.30;99.90;;;;;;4999570;28;273697;-84
2021/12/14 09:07:10;;;;;;;69.53;41.15;;;8.40;99.90;;;;;;5028501;28;20060;-84
2021/12/14 09:09:37;;;;;;;72.85;41.63;;;8.40;99.90;;;;;;4988546;28;59166;-84
2021/12/14 09:12:17;;;;;;;64.97;39.92;;;8.40;99.90;;;;;;5023179;28;20049;-84
2021/12/14 09:14:46;;;;;;;72.60;41.33;;;8.30;99.90;;;;;;5018737;28;319268;-84
2021/12/14 09:17:14;;;;;;;72.90;42.78;;;8.40;99.90;;;;;;5028426;28;20052;-82
2021/12/14 09:19:44;;;;;;;78.57;43.97;;;8.50;99.90;;;;;;5002213;28;120183;-83
2021/12/14 09:22:41;;;;;;;66.78;40.70;;;8.40;99.90;;;;;;5032172;28;20049;-83
2021/12/14 09:25:14;;;;;;;70.88;43.00;;;8.40;99.90;;;;;;4996812;28;90976;-83
2021/12/14 09:27:41;;;;;;;68.07;41.28;;;8.40;99.90;;;;;;5014180;28;20065;-84
2021/12/14 09:30:13;;;;;;;69.22;41.15;;;8.50;99.90;;;;;;4992126;28;40272;-84
2021/12/14 09:32:40;;;;;;;77.05;43.63;;;8.40;99.90;;;;;;5006479;28;20061;-82
2021/12/14 09:35:14;;;;;;;79.15;43.50;;;8.40;99.90;;;;;;4896745;28;3002103;-83
2021/12/14 09:37:40;;;;;;;72.97;41.72;;;8.50;99.90;;;;;;4976173;28;20331;-83
2021/12/14 09:40:14;;;;;;;74.97;43.88;;;8.40;99.90;;;;;;4979455;28;99019;-84
2021/12/14 09:42:41;;;;;;;77.38;43.38;;;8.50;99.90;;;;;;5007969;28;20161;-83
2021/12/14 09:45:12;;;;;;;80.03;43.60;;;8.50;99.90;;;;;;4993111;28;142563;-83
2021/12/14 09:47:38;;;;;;;79.18;43.90;;;8.50;99.90;;;;;;4993454;28;20096;-85
2021/12/14 09:50:12;;;;;;;77.82;42.78;;;8.50;99.90;;;;;;5001058;28;109022;-86
2021/12/14 09:52:40;;;;;;;81.28;43.90;;;8.50;99.90;;;;;;5011263;28;20542;-85
2021/12/14 09:55:14;;;;;;;82.18;43.65;;;8.50;99.90;;;;;;4881020;28;2999559;-84
2021/12/14 09:57:45;;;;;;;84.63;43.05;;;8.50;99.90;;;;;;5010926;28;20586;-84
2021/12/14 10:00:27;;;;;;;87.30;44.83;;;8.50;99.90;;;;;;4996551;28;81516;-82
2021/12/14 10:02:56;;;;;;;77.53;42.30;;;8.50;99.90;;;;;;5024923;28;20057;-83
2021/12/14 10:05:30;;;;;;;77.57;41.85;;;8.50;99.90;;;;;;4999926;28;266348;-83
2021/12/14 10:07:58;;;;;;;82.35;41.65;;;8.50;99.90;;;;;;5030447;28;20060;-83
2021/12/14 10:10:24;;;;;;;79.68;42.95;;;8.60;99.90;;;;;;4987182;28;78957;-83
2021/12/14 10:12:55;;;;;;;76.18;40.83;;;8.50;99.90;;;;;;5026126;28;20052;-83
2021/12/14 10:15:41;;;;;;;75.07;41.30;;;8.50;99.90;;;;;;5033516;28;249904;-83
2021/12/14 10:18:24;;;;;;;74.82;39.00;;;8.60;99.90;;;;;;5038487;28;20160;-84
2021/12/14 10:20:56;;;;;;;76.88;40.72;;;8.50;99.90;;;;;;5011430;28;220811;-83
2021/12/14 10:23:24;;;;;;;78.82;42.05;;;8.60;99.90;;;;;;5050591;28;20067;-85
2021/12/14 10:25:51;;;;;;;77.00;42.53;;;8.60;99.90;;;;;;5036658;28;175851;-84
2021/12/14 10:28:22;;;;;;;77.55;41.03;;;8.60;99.90;;;;;;5051846;28;20033;-85
2021/12/14 10:30:59;;;;;;;80.07;40.55;;;8.60;99.90;;;;;;5037868;28;134099;-84
2021/12/14 10:33:32;;;;;;;73.53;39.45;;;8.60;99.90;;;;;;5045939;28;20045;-86
2021/12/14 10:36:04;;;;;;;71.95;39.17;;;8.70;99.90;;;;;;5009374;28;49962;-82
2021/12/14 10:38:40;;;;;;;76.00;40.90;;;8.70;99.90;;;;;;5039365;28;20069;-83
2021/12/14 10:44:06;;;;;;;75.65;38.65;;;8.60;99.90;;;;;;5019870;28;21848;-83
2021/12/14 10:46:46;;;;;;;75.03;39.00;;;8.60;99.90;;;;;;5019385;28;20400;-83
2021/12/14 10:49:15;;;;;;;72.85;36.88;;;8.60;99.90;;;;;;5014297;28;265467;-82
2021/12/14 10:51:45;;;;;;;69.97;37.25;;;8.60;99.90;;;;;;5027290;28;20058;-82
2021/12/14 10:54:15;;;;;;;68.65;36.53;;;8.60;99.90;;;;;;4998913;28;176093;-83
2021/12/14 10:56:49;;;;;;;70.22;36.03;;;8.60;99.90;;;;;;5039282;28;21507;-83
2021/12/14 10:59:19;;;;;;;68.47;35.13;;;8.70;99.90;;;;;;5013875;28;271372;-84
2021/12/14 11:01:52;;;;;;;75.78;37.65;;;8.60;99.90;;;;;;5004454;28;20506;-83
2021/12/14 11:04:26;;;;;;;72.00;36.70;;;8.60;99.90;;;;;;4997728;28;256503;-84
2021/12/14 11:06:57;;;;;;;73.68;37.00;;;8.70;99.90;;;;;;5024733;28;20061;-84
2021/12/14 11:09:42;;;;;;;70.05;36.08;;;8.70;99.90;;;;;;5021425;28;271366;-86
2021/12/14 11:12:23;;;;;;;72.00;36.38;;;8.70;99.90;;;;;;5034818;28;20056;-83
2021/12/14 11:14:54;;;;;;;75.68;35.95;;;8.70;99.90;;;;;;5017664;28;121637;-83
2021/12/14 11:20:15;;;;;;;68.25;35.45;;;8.80;99.90;;;;;;5020440;28;23373;-84
2021/12/14 11:23:03;;;;;;;68.53;36.00;;;8.70;99.90;;;;;;5032441;28;20045;-83
2021/12/14 11:25:32;;;;;;;70.13;36.20;;;8.70;99.90;;;;;;5022777;28;72436;-86
2021/12/14 11:28:05;;;;;;;73.60;36.45;;;8.80;99.90;;;;;;5029900;28;20054;-84
2021/12/14 11:30:41;;;;;;;73.40;36.28;;;8.80;99.90;;;;;;5029909;28;254978;-84
2021/12/14 11:33:17;;;;;;;69.80;35.10;;;8.80;99.90;;;;;;5035154;28;20072;-85
2021/12/14 11:36:02;;;;;;;73.30;36.70;;;8.80;99.90;;;;;;5026135;28;158265;-85
2021/12/14 11:38:37;;;;;;;70.28;34.85;;;8.80;99.90;;;;;;5033631;28;20570;-84
2021/12/14 11:41:28;;;;;;;66.68;33.78;;;8.80;99.90;;;;;;5023218;28;20045;-83
2021/12/14 11:44:14;;;;;;;67.70;35.63;;;8.80;99.90;;;;;;5020660;28;254644;-85
2021/12/14 11:46:52;;;;;;;68.82;34.60;;;8.80;99.90;;;;;;5055329;28;21109;-84
2021/12/14 11:49:20;;;;;;;70.88;33.63;;;8.90;99.90;;;;;;5019203;28;259802;-84
2021/12/14 11:51:50;;;;;;;66.85;34.17;;;8.80;99.90;;;;;;5041331;28;20049;-83
2021/12/14 11:54:19;;;;;;;66.70;32.28;;;8.80;99.90;;;;;;5023553;28;20036;-85
2021/12/14 11:56:48;;;;;;;76.57;35.30;;;8.80;99.90;;;;;;5030841;28;20045;-83
2021/12/14 11:59:18;;;;;;;78.40;36.40;;;8.80;99.90;;;;;;5023136;28;20048;-84
2021/12/14 12:02:04;;;;;;;69.15;33.88;;;8.80;99.90;;;;;;5029197;28;20060;-85
2021/12/14 12:04:35;;;;;;;80.38;34.72;;;8.80;99.90;;;;;;5005062;28;269025;-84
2021/12/14 12:09:56;;;;;;;67.82;31.65;;;8.80;99.90;;;;;;5010728;28;247442;-84
2021/12/14 12:12:24;;;;;;;73.43;33.00;;;8.80;99.90;;;;;;5016081;28;20049;-83
2021/12/14 12:15:01;;;;;;;72.05;31.98;;;8.80;99.90;;;;;;5003377;28;255441;-84
2021/12/14 12:17:41;;;;;;;66.60;31.92;;;8.90;99.90;;;;;;5013786;28;20061;-83
2021/12/14 12:20:16;;;;;;;71.30;32.00;;;8.80;99.90;;;;;;4997264;28;212791;-83
2021/12/14 12:22:57;;;;;;;64.57;31.95;;;8.90;99.90;;;;;;5029360;28;20041;-83
2021/12/14 12:25:27;;;;;;;77.95;32.80;;;8.90;99.90;;;;;;4993499;28;258449;-83
2021/12/14 12:28:11;;;;;;;69.40;32.50;;;8.90;99.90;;;;;;5028850;28;20061;-85
2021/12/14 12:31:05;;;;;;;68.43;32.10;;;8.90;99.90;;;;;;4996794;28;196208;-84
2021/12/14 12:33:40;;;;;;;74.55;32.72;;;8.90;99.90;;;;;;5012532;28;20797;-84
2021/12/14 12:36:29;;;;;;;76.10;32.65;;;8.90;99.90;;;;;;5003028;28;20065;-85
2021/12/14 12:39:01;;;;;;;74.38;32.67;;;8.90;99.90;;;;;;5013489;28;129290;-85
2021/12/14 12:41:38;;;;;;;73.70;32.15;;;8.90;99.90;;;;;;5016203;28;20060;-83
2021/12/14 12:44:21;;;;;;;78.18;33.85;;;9.00;99.90;;;;;;5011749;28;217286;-83
2021/12/14 12:46:54;;;;;;;70.63;31.88;;;9.00;99.90;;;;;;4997664;28;20054;-84
2021/12/14 12:49:20;;;;;;;68.97;30.42;;;9.00;99.90;;;;;;5019308;28;251437;-84
2021/12/14 12:51:58;;;;;;;71.38;31.05;;;9.00;99.90;;;;;;5031395;28;20065;-85
2021/12/14 12:54:38;;;;;;;69.95;31.45;;;9.00;99.90;;;;;;4997286;28;243873;-84
2021/12/14 12:57:36;;;;;;;73.90;32.33;;;9.10;99.90;;;;;;5033641;28;20410;-83
2021/12/14 13:00:11;;;;;;;64.72;29.58;;;9.10;99.90;;;;;;5035691;28;155842;-83
2021/12/14 13:02:48;;;;;;;65.38;29.88;;;9.10;99.90;;;;;;5033134;28;20594;-83
2021/12/14 13:05:24;;;;;;;70.20;30.25;;;9.10;99.90;;;;;;5013194;28;240615;-82
2021/12/14 13:07:53;;;;;;;66.13;29.48;;;9.10;99.90;;;;;;5053078;28;20053;-82
2021/12/14 13:10:30;;;;;;;60.40;28.92;;;9.20;99.90;;;;;;5037605;28;177243;-82
2021/12/14 13:13:10;;;;;;;60.47;28.80;;;9.20;99.90;;;;;;5052746;28;20042;-81
2021/12/14 13:15:42;;;;;;;62.17;28.30;;;9.20;99.90;;;;;;5047038;28;251542;-82
2021/12/14 13:18:27;;;;;;;64.05;28.63;;;9.20;99.90;;;;;;5057950;28;20067;-82
2021/12/14 13:21:12;;;;;;;63.25;28.15;;;9.20;99.90;;;;;;4998024;28;20068;-83
2021/12/14 13:24:09;;;;;;;57.53;27.83;;;9.20;99.90;;;;;;5012797;28;235530;-82
2021/12/14 13:26:47;;;;;;;61.55;27.50;;;9.20;99.90;;;;;;5028257;28;20053;-83
2021/12/14 13:29:14;;;;;;;59.42;27.38;;;9.20;99.90;;;;;;5016030;28;255594;-82
2021/12/14 13:31:46;;;;;;;60.85;27.15;;;9.20;99.90;;;;;;5031824;28;20033;-83
2021/12/14 13:34:22;;;;;;;55.83;25.40;;;9.20;99.90;;;;;;5018559;28;208906;-83
2021/12/14 13:36:52;;;;;;;59.30;26.52;;;9.30;99.90;;;;;;5038109;28;20059;-84
2021/12/14 13:39:19;;;;;;;56.85;27.17;;;9.30;99.90;;;;;;5018072;28;207537;-81